createdAt,value
2023-03-03T00:01:33.083Z,25.80
2023-03-03T00:04:00.246Z,23.90
2023-03-03T00:06:27.545Z,24.97
2023-03-03T00:08:54.550Z,24.80
2023-03-03T00:11:21.522Z,24.87
2023-03-03T00:13:57.072Z,24.60
2023-03-03T00:16:38.611Z,21.07
2023-03-03T00:19:21.274Z,26.77
2023-03-03T00:21:51.288Z,22.27
2023-03-03T00:24:37.239Z,22.47
2023-03-03T00:27:23.281Z,23.63
2023-03-03T00:29:55.854Z,21.80
2023-03-03T00:32:22.752Z,24.20
2023-03-03T00:34:51.649Z,27.60
2023-03-03T00:37:34.942Z,22.40
2023-03-03T00:40:26.892Z,23.53
2023-03-03T00:42:59.685Z,22.23
2023-03-03T00:45:39.639Z,27.43
2023-03-03T00:48:24.944Z,27.03
2023-03-03T00:50:53.853Z,29.73
2023-03-03T00:53:22.784Z,27.83
2023-03-03T00:55:51.395Z,26.33
2023-03-03T00:58:21.584Z,29.50
2023-03-03T01:00:50.972Z,26.50
2023-03-03T01:03:24.941Z,24.77
2023-03-03T01:05:52.442Z,25.03
2023-03-03T01:08:19.915Z,26.47
2023-03-03T01:10:51.244Z,22.97
2023-03-03T01:13:23.792Z,27.93
2023-03-03T01:15:51.466Z,25.73
2023-03-03T01:18:18.711Z,25.00
2023-03-03T01:20:45.618Z,24.43
2023-03-03T01:23:12.714Z,30.93
2023-03-03T01:25:39.837Z,28.37
2023-03-03T01:28:06.739Z,29.07
2023-03-03T01:30:34.011Z,29.37
2023-03-03T01:33:00.804Z,33.73
2023-03-03T01:35:27.708Z,36.60
2023-03-03T01:37:54.759Z,34.07
2023-03-03T01:40:27.608Z,36.93
2023-03-03T01:42:54.780Z,36.77
2023-03-03T01:45:27.305Z,38.57
2023-03-03T01:48:05.171Z,37.63
2023-03-03T01:50:45.921Z,37.20
2023-03-03T01:53:19.348Z,40.20
2023-03-03T01:55:50.296Z,40.50
2023-03-03T01:58:26.702Z,38.57
2023-03-03T02:00:58.984Z,40.17
2023-03-03T02:03:26.274Z,43.97
2023-03-03T02:05:55.930Z,44.00
2023-03-03T02:08:27.883Z,38.60
2023-03-03T02:10:56.270Z,35.53
2023-03-03T02:13:23.525Z,40.03
2023-03-03T02:15:50.435Z,39.93
2023-03-03T02:18:20.020Z,40.37
2023-03-03T02:20:58.755Z,39.57
2023-03-03T02:23:59.316Z,40.30
2023-03-03T02:26:28.708Z,38.97
2023-03-03T02:28:56.069Z,37.53
2023-03-03T02:31:26.150Z,38.50
2023-03-03T02:33:55.012Z,42.30
2023-03-03T02:36:25.214Z,37.23
2023-03-03T02:38:55.722Z,36.27
2023-03-03T02:41:48.263Z,38.73
2023-03-03T02:44:17.031Z,38.77
2023-03-03T02:46:46.364Z,40.20
2023-03-03T02:49:16.852Z,40.13
2023-03-03T02:51:44.370Z,44.30
2023-03-03T02:54:13.672Z,46.40
2023-03-03T02:56:40.748Z,49.53
2023-03-03T02:59:08.198Z,50.03
2023-03-03T03:01:38.229Z,45.33
2023-03-03T03:04:09.541Z,45.87
2023-03-03T03:06:36.548Z,47.77
2023-03-03T03:09:04.839Z,49.77
2023-03-03T03:11:32.036Z,44.87
2023-03-03T03:13:58.912Z,47.80
2023-03-03T03:16:26.003Z,49.17
2023-03-03T03:18:53.150Z,46.13
2023-03-03T03:21:19.931Z,42.40
2023-03-03T03:23:46.998Z,48.87
2023-03-03T03:26:13.878Z,46.77
2023-03-03T03:28:40.897Z,49.13
2023-03-03T03:31:08.956Z,50.33
2023-03-03T03:33:36.592Z,47.27
2023-03-03T03:36:04.625Z,48.90
2023-03-03T03:38:32.091Z,51.43
2023-03-03T03:40:59.741Z,52.83
2023-03-03T03:43:27.830Z,52.17
2023-03-03T03:45:54.888Z,47.30
2023-03-03T03:48:22.075Z,49.27
2023-03-03T03:50:51.782Z,45.27
2023-03-03T03:53:19.377Z,54.73
2023-03-03T03:55:46.803Z,49.27
2023-03-03T03:58:18.121Z,54.00
2023-03-03T04:00:46.201Z,60.80
2023-03-03T04:03:14.845Z,54.20
2023-03-03T04:05:42.404Z,49.33
2023-03-03T04:08:10.148Z,45.87
2023-03-03T04:10:37.087Z,50.57
2023-03-03T04:13:04.280Z,50.43
2023-03-03T04:15:31.420Z,47.23
2023-03-03T04:17:58.265Z,48.93
2023-03-03T04:20:25.005Z,48.60
2023-03-03T04:22:52.314Z,47.87
2023-03-03T04:25:19.117Z,61.07
2023-03-03T04:27:46.480Z,55.07
2023-03-03T04:30:15.254Z,61.57
2023-03-03T04:32:42.200Z,53.30
2023-03-03T04:35:09.419Z,61.13
2023-03-03T04:37:37.766Z,48.10
2023-03-03T04:40:06.819Z,58.53
2023-03-03T04:42:34.014Z,58.17
2023-03-03T04:45:01.125Z,53.70
2023-03-03T04:47:27.955Z,57.73
2023-03-03T04:49:54.676Z,53.83
2023-03-03T04:52:21.737Z,58.33
2023-03-03T04:54:48.605Z,59.33
2023-03-03T04:57:15.406Z,56.37
2023-03-03T04:59:42.491Z,66.67
2023-03-03T05:02:09.255Z,64.70
2023-03-03T05:04:36.287Z,63.97
2023-03-03T05:07:03.539Z,61.53
2023-03-03T05:09:30.448Z,62.00
2023-03-03T05:11:57.214Z,63.07
2023-03-03T05:14:24.310Z,65.63
2023-03-03T05:16:51.350Z,71.57
2023-03-03T05:19:18.503Z,72.10
2023-03-03T05:21:45.892Z,67.40
2023-03-03T05:24:14.502Z,72.40
2023-03-03T05:26:42.078Z,70.90
2023-03-03T05:29:09.815Z,71.57
2023-03-03T05:31:36.945Z,65.43
2023-03-03T05:34:03.850Z,75.63
2023-03-03T05:36:31.124Z,76.67
2023-03-03T05:38:57.903Z,75.67
2023-03-03T05:41:24.848Z,65.33
2023-03-03T05:43:51.860Z,71.40
2023-03-03T05:46:19.390Z,70.50
2023-03-03T05:48:46.533Z,78.77
2023-03-03T05:51:13.568Z,71.97
2023-03-03T05:53:41.052Z,89.97
2023-03-03T05:56:08.031Z,84.77
2023-03-03T05:58:35.378Z,79.77
2023-03-03T06:01:02.156Z,80.13
2023-03-03T06:03:28.959Z,82.07
2023-03-03T06:05:56.082Z,84.57
2023-03-03T06:08:22.825Z,71.83
2023-03-03T06:10:49.655Z,75.57
2023-03-03T06:13:16.895Z,69.10
2023-03-03T06:15:44.260Z,72.43
2023-03-03T06:18:11.094Z,71.73
2023-03-03T06:20:38.905Z,68.37
2023-03-03T06:23:06.015Z,68.53
2023-03-03T06:25:35.902Z,71.67
2023-03-03T06:28:03.911Z,66.77
2023-03-03T06:30:30.769Z,74.00
2023-03-03T06:32:57.921Z,71.47
2023-03-03T06:35:25.399Z,65.13
2023-03-03T06:37:52.264Z,57.00
2023-03-03T06:40:19.793Z,54.07
2023-03-03T06:42:46.555Z,59.07
2023-03-03T06:45:14.615Z,55.23
2023-03-03T06:47:42.351Z,59.07
2023-03-03T06:50:11.697Z,60.50
2023-03-03T06:52:38.587Z,59.57
2023-03-03T06:55:15.911Z,63.73
2023-03-03T06:57:42.714Z,62.13
2023-03-03T07:00:20.901Z,60.37
2023-03-03T07:02:52.210Z,65.20
2023-03-03T07:05:19.221Z,65.93
2023-03-03T07:07:46.338Z,70.87
2023-03-03T07:10:39.630Z,65.00
2023-03-03T07:13:28.445Z,62.80
2023-03-03T07:15:58.790Z,68.90
2023-03-03T07:18:32.822Z,65.37
2023-03-03T07:21:06.718Z,61.07
2023-03-03T07:23:43.875Z,70.73
2023-03-03T07:26:16.505Z,65.47
2023-03-03T07:28:47.683Z,76.00
2023-03-03T07:31:26.713Z,71.63
2023-03-03T07:33:55.225Z,67.63
2023-03-03T07:36:29.757Z,77.47
2023-03-03T07:39:21.103Z,69.63
2023-03-03T07:41:48.264Z,73.57
2023-03-03T07:44:37.361Z,76.87
2023-03-03T07:47:20.679Z,72.70
2023-03-03T07:49:50.087Z,73.37
2023-03-03T07:52:37.566Z,78.80
2023-03-03T07:55:23.840Z,74.90
2023-03-03T07:57:52.506Z,69.70
2023-03-03T08:00:19.449Z,63.83
2023-03-03T08:03:05.964Z,63.27
2023-03-03T08:05:41.638Z,69.13
2023-03-03T08:08:16.345Z,58.13
2023-03-03T08:10:52.160Z,59.87
2023-03-03T08:13:23.190Z,59.07
2023-03-03T08:15:52.938Z,57.87
2023-03-03T08:18:23.594Z,60.67
2023-03-03T08:20:54.180Z,50.73
2023-03-03T08:23:21.852Z,50.83
2023-03-03T08:25:50.836Z,47.77
2023-03-03T08:28:18.603Z,54.33
2023-03-03T08:30:46.651Z,56.00
2023-03-03T08:33:14.712Z,52.03
2023-03-03T08:35:42.817Z,57.80
2023-03-03T08:38:10.716Z,59.23
2023-03-03T08:40:37.987Z,53.53
2023-03-03T08:43:05.569Z,60.17
2023-03-03T08:45:33.679Z,53.13
2023-03-03T08:48:01.235Z,51.90
2023-03-03T08:50:29.364Z,58.67
2023-03-03T08:52:56.772Z,54.17
2023-03-03T08:55:23.830Z,57.83
2023-03-03T08:57:50.736Z,59.57
2023-03-03T09:00:19.159Z,55.67
2023-03-03T09:02:47.010Z,49.73
2023-03-03T09:05:14.934Z,48.70
2023-03-03T09:07:42.240Z,55.33
2023-03-03T09:10:11.627Z,47.70
2023-03-03T09:12:42.398Z,50.87
2023-03-03T09:15:18.595Z,50.10
2023-03-03T09:17:45.907Z,51.03
2023-03-03T09:20:23.891Z,49.97
2023-03-03T09:22:51.441Z,53.37
2023-03-03T09:25:32.235Z,49.50
2023-03-03T09:27:59.781Z,46.77
2023-03-03T09:30:26.808Z,46.60
2023-03-03T09:32:56.012Z,45.23
2023-03-03T09:35:34.953Z,51.67
2023-03-03T09:38:07.014Z,50.60
2023-03-03T09:40:53.544Z,51.27
2023-03-03T09:43:29.477Z,50.80
2023-03-03T09:46:13.382Z,45.80
2023-03-03T09:49:03.398Z,50.47
2023-03-03T09:51:59.440Z,50.67
2023-03-03T09:54:47.087Z,45.57
2023-03-03T09:57:26.383Z,47.60
2023-03-03T10:00:20.144Z,50.53
2023-03-03T10:03:01.973Z,46.53
2023-03-03T10:05:59.313Z,47.07
2023-03-03T10:09:11.668Z,45.73
2023-03-03T10:11:50.617Z,43.27
2023-03-03T10:14:59.332Z,44.97
2023-03-03T10:17:44.845Z,44.83
2023-03-03T10:20:50.736Z,41.13
2023-03-03T10:24:03.513Z,34.83
2023-03-03T10:27:12.405Z,38.97
2023-03-03T10:29:42.613Z,40.17
2023-03-03T10:32:31.389Z,33.67
2023-03-03T10:35:04.130Z,33.27
2023-03-03T10:37:52.200Z,37.60
2023-03-03T10:40:56.568Z,38.10
2023-03-03T10:43:31.871Z,32.67
2023-03-03T10:46:11.687Z,36.27
2023-03-03T10:49:20.211Z,40.17
2023-03-03T10:52:17.703Z,38.67
2023-03-03T10:54:50.652Z,36.67
2023-03-03T10:57:56.644Z,34.87
2023-03-03T11:00:30.871Z,42.03
2023-03-03T11:03:19.316Z,40.13
2023-03-03T11:05:58.970Z,41.27
2023-03-03T11:08:32.267Z,42.27
2023-03-03T11:11:11.301Z,45.03
2023-03-03T11:13:55.219Z,41.87
2023-03-03T11:16:39.491Z,45.43
2023-03-03T11:19:32.506Z,38.73
2023-03-03T11:22:34.245Z,38.33
2023-03-03T11:25:25.554Z,38.07
2023-03-03T11:28:12.672Z,40.43
2023-03-03T11:30:55.035Z,38.03
2023-03-03T11:33:28.168Z,39.17
2023-03-03T11:36:21.131Z,40.30
2023-03-03T11:38:57.574Z,36.90
2023-03-03T11:41:50.420Z,37.53
2023-03-03T11:44:30.901Z,36.77
2023-03-03T11:47:15.013Z,35.97
2023-03-03T11:50:04.671Z,40.57
2023-03-03T11:53:09.222Z,38.80
2023-03-03T11:55:44.140Z,39.37
2023-03-03T11:58:21.266Z,37.83
2023-03-03T12:00:51.916Z,38.97
2023-03-03T12:03:47.924Z,36.60
2023-03-03T12:06:42.031Z,36.10
2023-03-03T12:09:13.836Z,38.20
2023-03-03T12:12:12.798Z,40.60
2023-03-03T12:15:01.964Z,36.57
2023-03-03T12:17:37.697Z,40.93
2023-03-03T12:20:22.575Z,42.93
2023-03-03T12:23:07.319Z,43.60
2023-03-03T12:25:47.829Z,40.00
2023-03-03T12:28:40.988Z,40.50
2023-03-03T12:31:28.914Z,40.00
2023-03-03T12:34:11.954Z,44.70
2023-03-03T12:36:54.312Z,42.37
2023-03-03T12:39:35.210Z,41.10
2023-03-03T12:42:07.695Z,38.13
2023-03-03T12:44:47.611Z,38.17
2023-03-03T12:47:57.002Z,39.93
2023-03-03T12:50:59.352Z,41.17
2023-03-03T12:53:48.107Z,36.17
2023-03-03T12:56:26.798Z,39.17
2023-03-03T12:59:05.261Z,34.67
2023-03-03T13:02:13.552Z,37.90
2023-03-03T13:05:03.788Z,36.27
2023-03-03T13:07:52.260Z,30.83
2023-03-03T13:10:54.876Z,32.77
2023-03-03T13:13:27.072Z,28.03
2023-03-03T13:16:01.121Z,32.03
2023-03-03T13:19:08.258Z,32.17
2023-03-03T13:21:52.224Z,29.80
2023-03-03T13:24:55.960Z,30.67
2023-03-03T13:27:28.118Z,29.93
2023-03-03T13:30:03.382Z,32.00
2023-03-03T13:32:47.152Z,30.57
2023-03-03T13:36:12.886Z,30.80
2023-03-03T13:38:46.500Z,27.93
2023-03-03T13:41:28.743Z,26.47
2023-03-03T13:43:59.985Z,32.43
2023-03-03T13:46:40.689Z,27.67
2023-03-03T13:49:13.456Z,28.50
2023-03-03T13:52:05.798Z,27.17
2023-03-03T13:55:10.094Z,25.47
2023-03-03T13:57:54.908Z,22.77
2023-03-03T14:00:49.877Z,28.57
2023-03-03T14:03:28.682Z,25.90
2023-03-03T14:06:04.813Z,26.20
2023-03-03T14:08:43.440Z,26.47
2023-03-03T14:11:22.495Z,29.00
2023-03-03T14:14:10.954Z,26.63
2023-03-03T14:16:50.238Z,25.23
2023-03-03T14:19:23.961Z,27.20
2023-03-03T14:22:24.226Z,27.20
2023-03-03T14:25:06.086Z,24.97
2023-03-03T14:27:44.949Z,23.10
2023-03-03T14:30:28.298Z,24.03
2023-03-03T14:33:18.099Z,23.17
2023-03-03T14:35:51.830Z,24.50
2023-03-03T14:38:23.863Z,22.40
2023-03-03T14:41:14.412Z,20.57
2023-03-03T14:43:43.941Z,22.50
2023-03-03T14:46:33.560Z,20.47
2023-03-03T14:49:06.844Z,22.00
2023-03-03T14:51:42.165Z,21.17
2023-03-03T14:54:28.846Z,25.33
2023-03-03T14:57:01.939Z,22.07
2023-03-03T14:59:29.804Z,23.93
2023-03-03T15:02:18.469Z,20.47
2023-03-03T15:04:47.258Z,22.33
2023-03-03T15:07:36.082Z,21.87
2023-03-03T15:10:07.616Z,23.33
2023-03-03T15:12:36.333Z,20.70
2023-03-03T15:15:06.075Z,24.30
2023-03-03T15:17:37.496Z,21.77
2023-03-03T15:20:40.926Z,23.40
2023-03-03T15:23:32.617Z,22.23
2023-03-03T15:26:10.096Z,22.47
2023-03-03T15:28:46.142Z,21.80
2023-03-03T15:31:46.729Z,20.80
2023-03-03T15:34:41.908Z,22.00
2023-03-03T15:37:21.713Z,24.57
2023-03-03T15:40:17.634Z,21.93
2023-03-03T15:43:00.490Z,23.23
2023-03-03T15:45:46.968Z,22.53
2023-03-03T15:48:24.565Z,20.33
2023-03-03T15:51:12.347Z,25.57
2023-03-03T15:54:15.933Z,23.03
2023-03-03T15:56:59.209Z,23.43
2023-03-03T16:00:08.269Z,19.87
2023-03-03T16:02:59.112Z,23.47
2023-03-03T16:05:31.883Z,24.57
2023-03-03T16:08:14.391Z,21.07
2023-03-03T16:10:52.527Z,25.87
2023-03-03T16:13:47.187Z,22.53
2023-03-03T16:16:42.133Z,24.33
2023-03-03T16:19:41.700Z,27.40
2023-03-03T16:22:14.522Z,27.30
2023-03-03T16:25:02.721Z,27.57
2023-03-03T16:27:38.728Z,28.40
2023-03-03T16:30:24.029Z,26.27
2023-03-03T16:33:00.048Z,29.83
2023-03-03T16:35:33.934Z,28.93
2023-03-03T16:38:11.486Z,27.63
2023-03-03T16:40:52.302Z,29.23
2023-03-03T16:43:43.550Z,37.27
2023-03-03T16:46:41.433Z,32.83
2023-03-03T16:49:45.868Z,37.77
2023-03-03T16:52:15.793Z,35.87
2023-03-03T16:55:08.233Z,33.97
2023-03-03T16:58:07.760Z,39.80
2023-03-03T17:00:48.400Z,39.37
2023-03-03T17:03:48.098Z,43.70
2023-03-03T17:06:29.308Z,39.40
2023-03-03T17:09:02.203Z,46.97
2023-03-03T17:12:00.573Z,43.07
2023-03-03T17:14:49.600Z,36.97
2023-03-03T17:17:25.749Z,40.87
2023-03-03T17:20:36.703Z,36.97
2023-03-03T17:23:28.619Z,41.60
2023-03-03T17:26:22.633Z,41.80
2023-03-03T17:29:09.111Z,41.23
2023-03-03T17:31:42.245Z,40.83
2023-03-03T17:34:33.549Z,41.00
2023-03-03T17:37:12.616Z,36.63
2023-03-03T17:39:51.218Z,39.60
2023-03-03T17:42:47.024Z,41.07
2023-03-03T17:45:20.732Z,39.77
2023-03-03T17:48:03.386Z,40.60
2023-03-03T17:50:57.738Z,49.27
2023-03-03T17:53:24.760Z,42.33
2023-03-03T17:55:58.196Z,40.23
2023-03-03T17:58:41.751Z,44.97
2023-03-03T18:01:08.597Z,43.83
2023-03-03T18:04:14.690Z,48.70
2023-03-03T18:07:00.219Z,40.97
2023-03-03T18:09:44.484Z,40.40
2023-03-03T18:12:14.317Z,40.70
2023-03-03T18:14:57.543Z,39.17
2023-03-03T18:18:02.507Z,35.60
2023-03-03T18:20:45.095Z,42.53
2023-03-03T18:23:34.138Z,37.20
2023-03-03T18:26:37.357Z,38.63
2023-03-03T18:29:12.998Z,35.47
2023-03-03T18:31:52.518Z,40.60
2023-03-03T18:34:22.081Z,36.90
2023-03-03T18:37:30.095Z,39.37
2023-03-03T18:40:02.675Z,37.43
2023-03-03T18:42:38.105Z,43.67
2023-03-03T18:45:20.461Z,40.70
2023-03-03T18:48:14.769Z,38.20
2023-03-03T18:50:49.992Z,35.97
2023-03-03T18:53:17.487Z,38.70
2023-03-03T18:55:45.651Z,46.40
2023-03-03T18:58:15.784Z,43.93
2023-03-03T19:00:47.245Z,40.60
2023-03-03T19:03:25.059Z,41.23
2023-03-03T19:05:57.910Z,44.17
2023-03-03T19:08:29.185Z,40.47
2023-03-03T19:11:03.267Z,38.90
2023-03-03T19:13:33.167Z,43.10
2023-03-03T19:16:05.553Z,35.60
2023-03-03T19:18:41.539Z,38.80
2023-03-03T19:21:11.739Z,38.13
2023-03-03T19:24:00.553Z,43.37
2023-03-03T19:26:30.570Z,32.73
2023-03-03T19:29:21.623Z,39.17
2023-03-03T19:32:04.991Z,36.37
2023-03-03T19:34:59.998Z,36.43
2023-03-03T19:37:38.900Z,42.57
2023-03-03T19:40:32.805Z,38.43
2023-03-03T19:43:31.771Z,38.57
2023-03-03T19:46:13.896Z,39.80
2023-03-03T19:48:53.812Z,36.73
2023-03-03T19:51:55.622Z,43.23
2023-03-03T19:54:22.696Z,44.00
2023-03-03T19:57:02.766Z,42.20
2023-03-03T20:00:03.259Z,40.53
2023-03-03T20:02:49.827Z,35.47
2023-03-03T20:05:22.542Z,44.40
2023-03-03T20:07:49.379Z,39.03
2023-03-03T20:10:16.365Z,41.83
2023-03-03T20:13:21.779Z,37.13
2023-03-03T20:16:09.870Z,36.63
2023-03-03T20:19:20.499Z,35.07
2023-03-03T20:22:07.425Z,36.57
2023-03-03T20:24:50.407Z,38.87
2023-03-03T20:27:31.750Z,34.63
2023-03-03T20:30:13.641Z,32.23
2023-03-03T20:32:52.283Z,35.17
2023-03-03T20:35:42.986Z,35.50
2023-03-03T20:38:17.122Z,36.00
2023-03-03T20:40:58.860Z,35.70
2023-03-03T20:43:37.917Z,38.77
2023-03-03T20:46:14.412Z,34.30
2023-03-03T20:49:14.570Z,39.73
2023-03-03T20:51:52.894Z,35.03
2023-03-03T20:54:31.615Z,40.13
2023-03-03T20:57:04.408Z,37.77
2023-03-03T20:59:52.888Z,38.90
2023-03-03T21:02:55.354Z,34.50
2023-03-03T21:05:23.528Z,33.80
2023-03-03T21:07:57.545Z,33.13
2023-03-03T21:10:28.291Z,37.77
2023-03-03T21:12:56.744Z,33.00
2023-03-03T21:15:30.520Z,36.57
2023-03-03T21:17:58.745Z,34.20
2023-03-03T21:20:31.670Z,33.87
2023-03-03T21:23:00.850Z,32.17
2023-03-03T21:25:49.609Z,36.50
2023-03-03T21:28:28.743Z,31.33
2023-03-03T21:31:17.280Z,35.20
2023-03-03T21:33:53.674Z,36.93
2023-03-03T21:36:25.468Z,39.67
2023-03-03T21:38:54.520Z,36.73
2023-03-03T21:41:21.576Z,42.10
2023-03-03T21:43:51.607Z,40.47
2023-03-03T21:46:24.271Z,40.23
2023-03-03T21:48:52.364Z,35.60
2023-03-03T21:51:20.598Z,34.27
2023-03-03T21:53:47.882Z,30.20
2023-03-03T21:56:15.387Z,34.73
2023-03-03T21:58:43.024Z,34.97
2023-03-03T22:01:09.932Z,32.93
2023-03-03T22:03:39.623Z,30.77
2023-03-03T22:06:06.771Z,27.17
2023-03-03T22:08:33.654Z,27.10
2023-03-03T22:11:00.605Z,23.57
2023-03-03T22:13:27.496Z,23.80
2023-03-03T22:15:55.349Z,23.40
2023-03-03T22:18:22.506Z,20.77
2023-03-03T22:20:50.703Z,21.73
2023-03-03T22:23:18.983Z,25.83
2023-03-03T22:25:46.872Z,25.17
2023-03-03T22:28:14.416Z,25.47
2023-03-03T22:30:41.199Z,20.93
2023-03-03T22:33:08.665Z,21.03
2023-03-03T22:35:36.476Z,21.50
2023-03-03T22:38:03.834Z,19.30
2023-03-03T22:40:32.047Z,21.37
2023-03-03T22:42:59.057Z,25.47
2023-03-03T22:45:25.913Z,18.87
2023-03-03T22:47:52.952Z,17.63
2023-03-03T22:50:20.540Z,23.53
2023-03-03T22:52:47.576Z,19.13
2023-03-03T22:55:14.614Z,17.20
2023-03-03T22:57:41.532Z,20.80
2023-03-03T23:00:11.726Z,21.17
2023-03-03T23:02:38.900Z,22.03
2023-03-03T23:05:08.656Z,22.87
2023-03-03T23:07:36.323Z,19.47
2023-03-03T23:10:04.359Z,19.90
2023-03-03T23:12:31.258Z,18.57
2023-03-03T23:14:58.482Z,15.40
2023-03-03T23:17:25.631Z,19.20
2023-03-03T23:19:52.562Z,12.97
2023-03-03T23:22:19.860Z,18.50
2023-03-03T23:24:46.973Z,15.40
2023-03-03T23:27:13.918Z,16.80
2023-03-03T23:29:41.069Z,16.87
2023-03-03T23:32:08.265Z,15.63
2023-03-03T23:34:35.516Z,18.83
2023-03-03T23:37:02.596Z,20.23
2023-03-03T23:39:29.482Z,19.37
2023-03-03T23:41:56.275Z,22.70
2023-03-03T23:44:24.361Z,21.53
2023-03-03T23:46:51.177Z,18.27
2023-03-03T23:49:18.044Z,23.93
2023-03-03T23:51:45.084Z,23.53
2023-03-03T23:54:12.016Z,30.40
2023-03-03T23:56:38.817Z,25.87
2023-03-03T23:59:05.799Z,28.37
